createdAt,value
2022-12-08T00:03:04.548Z,-0.94
2022-12-08T00:08:28.869Z,-0.93
2022-12-08T00:13:31.921Z,-0.93
2022-12-08T00:18:35.255Z,-0.91
2022-12-08T00:23:37.920Z,-0.92
2022-12-08T00:28:40.659Z,-0.91
2022-12-08T00:33:43.448Z,-0.93
2022-12-08T00:38:48.173Z,-0.92
2022-12-08T00:43:50.917Z,-0.90
2022-12-08T00:48:53.651Z,-0.92
2022-12-08T00:53:56.571Z,-0.92
2022-12-08T00:59:00.094Z,-0.91
2022-12-08T01:04:07.733Z,-0.90
2022-12-08T01:09:12.639Z,-0.89
2022-12-08T01:14:15.521Z,-0.87
2022-12-08T01:19:18.708Z,-0.88
2022-12-08T01:24:21.479Z,-0.87
2022-12-08T01:29:24.377Z,-0.88
2022-12-08T01:34:27.100Z,-0.89
2022-12-08T01:39:30.742Z,-0.89
2022-12-08T01:44:33.407Z,-0.88
2022-12-08T01:49:37.000Z,-0.87
2022-12-08T01:54:51.560Z,-0.85
2022-12-08T02:00:01.541Z,-0.84
2022-12-08T02:05:06.501Z,-0.82
2022-12-08T02:10:12.426Z,-0.80
2022-12-08T02:15:15.790Z,-0.78
2022-12-08T02:20:37.339Z,-0.79
2022-12-08T02:25:54.666Z,-0.79
2022-12-08T02:31:32.604Z,-0.84
2022-12-08T02:37:09.658Z,-0.91
2022-12-08T02:42:21.205Z,-1.02
2022-12-08T02:47:26.872Z,-1.04
2022-12-08T02:52:29.609Z,-1.05
2022-12-08T02:57:35.073Z,-1.07
2022-12-08T03:02:50.107Z,-1.13
2022-12-08T03:08:22.581Z,-1.20
2022-12-08T03:13:33.003Z,-1.21
2022-12-08T03:18:43.085Z,-1.27
2022-12-08T03:23:49.440Z,-1.34
2022-12-08T03:28:52.492Z,-1.40
2022-12-08T03:33:58.612Z,-1.41
2022-12-08T03:39:02.219Z,-1.47
2022-12-08T03:44:05.230Z,-1.55
2022-12-08T03:49:08.018Z,-1.53
2022-12-08T03:54:13.320Z,-1.48
2022-12-08T03:59:16.218Z,-1.51
2022-12-08T04:04:19.159Z,-1.57
2022-12-08T04:09:21.968Z,-1.55
2022-12-08T04:14:24.711Z,-1.49
2022-12-08T04:19:27.539Z,-1.41
2022-12-08T04:24:30.283Z,-1.30
2022-12-08T04:29:33.036Z,-1.21
2022-12-08T04:34:35.768Z,-1.10
2022-12-08T04:39:38.513Z,-1.02
2022-12-08T04:44:41.277Z,-0.97
2022-12-08T04:49:44.000Z,-0.91
2022-12-08T04:54:46.758Z,-0.90
2022-12-08T04:59:49.479Z,-0.88
2022-12-08T05:04:52.250Z,-0.87
2022-12-08T05:09:55.101Z,-0.84
2022-12-08T05:14:57.812Z,-0.84
2022-12-08T05:20:01.162Z,-0.82
2022-12-08T05:25:04.433Z,-0.81
2022-12-08T05:30:07.679Z,-0.76
2022-12-08T05:35:10.672Z,-0.75
2022-12-08T05:40:13.533Z,-0.75
2022-12-08T05:45:16.307Z,-0.75
2022-12-08T05:50:19.115Z,-0.75
2022-12-08T05:55:21.824Z,-0.75
2022-12-08T06:00:24.677Z,-0.76
2022-12-08T06:05:27.422Z,-0.75
2022-12-08T06:10:30.177Z,-0.76
2022-12-08T06:15:35.120Z,-0.74
2022-12-08T06:20:37.859Z,-0.75
2022-12-08T06:25:40.590Z,-0.76
2022-12-08T06:30:43.293Z,-0.78
2022-12-08T06:35:46.068Z,-0.81
2022-12-08T06:40:56.217Z,-0.82
2022-12-08T06:46:00.192Z,-0.82
2022-12-08T06:51:08.500Z,-0.83
2022-12-08T06:56:11.938Z,-0.83
2022-12-08T07:01:15.194Z,-0.84
2022-12-08T07:06:22.717Z,-0.78
2022-12-08T07:11:25.486Z,-0.70
2022-12-08T07:16:28.367Z,-0.65
2022-12-08T07:21:31.489Z,-0.62
2022-12-08T07:26:34.244Z,-0.57
2022-12-08T07:31:39.237Z,-0.51
2022-12-08T07:36:42.179Z,-0.45
2022-12-08T07:41:44.906Z,-0.44
2022-12-08T07:46:51.130Z,-0.43
2022-12-08T07:51:53.865Z,-0.39
2022-12-08T07:57:01.854Z,-0.48
2022-12-08T08:02:23.351Z,-0.52
2022-12-08T08:07:28.194Z,-0.50
2022-12-08T08:12:32.323Z,-0.46
2022-12-08T08:17:39.257Z,-0.41
2022-12-08T08:22:42.256Z,-0.32
2022-12-08T08:27:45.070Z,-0.20
2022-12-08T08:32:49.106Z,-0.15
2022-12-08T08:37:52.021Z,-0.10
2022-12-08T08:42:54.796Z,-0.04
2022-12-08T08:47:57.686Z,-0.03
2022-12-08T08:53:00.415Z,-0.01
2022-12-08T08:58:03.144Z,0.05
2022-12-08T09:03:05.928Z,0.13
2022-12-08T09:08:08.919Z,0.15
2022-12-08T09:13:12.139Z,0.12
2022-12-08T09:18:14.961Z,0.09
2022-12-08T09:23:18.202Z,0.02
2022-12-08T09:28:21.167Z,-0.03
2022-12-08T09:33:25.367Z,0.01
2022-12-08T09:38:28.112Z,0.07
2022-12-08T09:43:52.588Z,-0.05
2022-12-08T09:48:58.549Z,-0.20
2022-12-08T09:54:12.168Z,-0.41
2022-12-08T09:59:30.532Z,-0.59
2022-12-08T10:04:38.630Z,-0.77
2022-12-08T10:10:00.975Z,-0.88
2022-12-08T10:15:29.049Z,-0.82
2022-12-08T10:20:41.400Z,-0.74
2022-12-08T10:25:56.600Z,-0.71
2022-12-08T10:30:59.673Z,-0.61
2022-12-08T10:36:04.986Z,-0.41
2022-12-08T10:41:14.978Z,-0.14
2022-12-08T10:46:25.863Z,0.09
2022-12-08T10:51:34.444Z,0.22
2022-12-08T10:56:37.138Z,0.25
2022-12-08T11:01:41.867Z,0.29
2022-12-08T11:06:48.445Z,0.28
2022-12-08T11:12:08.320Z,0.24
2022-12-08T11:17:26.683Z,0.23
2022-12-08T11:22:42.861Z,0.41
2022-12-08T11:27:50.717Z,0.59
2022-12-08T11:33:03.425Z,0.70
2022-12-08T11:38:21.671Z,0.69
2022-12-08T11:43:34.316Z,0.71
2022-12-08T11:48:52.350Z,0.75
2022-12-08T11:54:19.185Z,0.83
2022-12-08T11:59:31.245Z,0.95
2022-12-08T12:04:37.103Z,1.01
2022-12-08T12:10:10.542Z,1.00
2022-12-08T12:15:31.622Z,0.97
2022-12-08T12:20:48.035Z,0.90
2022-12-08T12:26:02.314Z,0.93
2022-12-08T12:31:18.414Z,0.92
2022-12-08T12:36:22.416Z,0.88
2022-12-08T12:41:30.783Z,0.79
2022-12-08T12:46:33.592Z,0.70
2022-12-08T12:51:46.624Z,0.76
2022-12-08T12:57:05.684Z,0.81
2022-12-08T13:02:29.379Z,0.75
2022-12-08T13:07:41.386Z,0.59
2022-12-08T13:12:45.757Z,0.37
2022-12-08T13:17:49.480Z,0.23
2022-12-08T13:23:26.791Z,0.08
2022-12-08T13:28:31.251Z,-0.09
2022-12-08T13:33:40.494Z,-0.18
2022-12-08T13:38:45.892Z,-0.21
2022-12-08T13:44:57.188Z,-0.23
2022-12-08T13:56:30.671Z,-0.35
2022-12-08T14:00:17.678Z,-0.41
2022-12-08T14:05:40.651Z,-0.34
2022-12-08T14:10:53.158Z,-0.33
2022-12-08T14:15:56.001Z,-0.36
2022-12-08T14:21:21.442Z,-0.37
2022-12-08T14:26:24.792Z,-0.33
2022-12-08T14:31:28.875Z,-0.27
2022-12-08T14:36:33.670Z,-0.23
2022-12-08T14:41:37.205Z,-0.22
2022-12-08T14:47:05.717Z,-0.12
2022-12-08T14:52:11.657Z,0.01
2022-12-08T14:57:15.462Z,0.06
2022-12-08T15:02:25.263Z,0.08
2022-12-08T15:07:32.677Z,0.14
2022-12-08T15:12:35.773Z,0.20
2022-12-08T15:17:43.117Z,0.22
2022-12-08T15:22:45.899Z,0.24
2022-12-08T15:27:50.732Z,0.28
2022-12-08T15:32:56.129Z,0.30
2022-12-08T15:37:58.887Z,0.30
2022-12-08T15:43:01.617Z,0.32
2022-12-08T15:48:04.756Z,0.32
2022-12-08T15:53:10.446Z,0.30
2022-12-08T16:09:31.391Z,0.27
2022-12-08T16:15:46.769Z,0.31
2022-12-08T16:19:57.960Z,0.33
2022-12-08T16:25:14.739Z,0.33
2022-12-08T16:30:21.678Z,0.35
2022-12-08T16:35:24.519Z,0.38
2022-12-08T16:40:27.443Z,0.39
2022-12-08T16:45:30.576Z,0.38
2022-12-08T16:50:34.786Z,0.39
2022-12-08T16:55:37.891Z,0.44
2022-12-08T17:00:41.113Z,0.44
2022-12-08T17:05:43.877Z,0.45
2022-12-08T17:11:06.577Z,0.47
2022-12-08T17:16:17.827Z,0.46
2022-12-08T17:21:20.729Z,0.46
2022-12-08T17:26:23.980Z,0.49
2022-12-08T17:31:29.958Z,0.49
2022-12-08T17:36:33.697Z,0.48
2022-12-08T17:41:36.833Z,0.49
2022-12-08T17:46:43.414Z,0.49
2022-12-08T17:51:49.986Z,0.47
2022-12-08T17:56:53.173Z,0.50
2022-12-08T18:01:57.610Z,0.53
2022-12-08T18:07:01.491Z,0.53
2022-12-08T18:12:04.563Z,0.55
2022-12-08T18:17:07.360Z,0.56
2022-12-08T18:22:11.193Z,0.55
2022-12-08T18:27:14.090Z,0.56
2022-12-08T18:32:16.858Z,0.59
2022-12-08T18:37:20.188Z,0.60
2022-12-08T18:42:23.133Z,0.59
2022-12-08T18:47:26.023Z,0.63
2022-12-08T18:52:32.342Z,0.63
2022-12-08T18:57:41.610Z,0.62
2022-12-08T19:02:45.128Z,0.64
2022-12-08T19:07:48.167Z,0.69
2022-12-08T19:12:52.541Z,0.71
2022-12-08T19:17:55.327Z,0.77
2022-12-08T19:22:58.033Z,0.82
2022-12-08T19:28:00.792Z,0.82
2022-12-08T19:33:03.636Z,0.81
2022-12-08T19:38:06.437Z,0.85
2022-12-08T19:43:39.204Z,0.89
2022-12-08T19:48:41.984Z,0.89
2022-12-08T19:53:47.759Z,0.90
2022-12-08T19:58:50.861Z,0.95
2022-12-08T20:03:53.944Z,0.97
2022-12-08T20:08:56.765Z,0.97
2022-12-08T20:13:59.512Z,1.01
2022-12-08T20:19:03.103Z,1.05
2022-12-08T20:24:06.161Z,1.07
2022-12-08T20:29:09.196Z,1.12
2022-12-08T20:34:15.471Z,1.16
2022-12-08T20:39:18.900Z,1.18
2022-12-08T20:44:21.962Z,1.20
2022-12-08T20:49:28.318Z,1.19
2022-12-08T20:54:34.334Z,1.12
2022-12-08T20:59:37.293Z,1.05
2022-12-08T21:04:40.207Z,0.96
2022-12-08T21:09:43.636Z,0.88
2022-12-08T21:14:46.656Z,0.80
2022-12-08T21:19:49.645Z,0.63
2022-12-08T21:24:52.414Z,0.52
2022-12-08T21:29:55.274Z,0.38
2022-12-08T21:34:58.069Z,0.22
2022-12-08T21:40:01.177Z,0.12
2022-12-08T21:45:04.523Z,0.02
2022-12-08T21:50:08.436Z,-0.09
2022-12-08T21:55:13.043Z,-0.15
2022-12-08T22:00:17.319Z,-0.19
2022-12-08T22:05:20.292Z,-0.25
2022-12-08T22:10:23.807Z,-0.28
2022-12-08T22:15:29.782Z,-0.27
2022-12-08T22:20:32.761Z,-0.25
2022-12-08T22:25:35.496Z,-0.25
2022-12-08T22:30:39.712Z,-0.23
2022-12-08T22:35:42.576Z,-0.17
2022-12-08T22:40:45.359Z,-0.19
2022-12-08T22:45:48.593Z,-0.20
2022-12-08T22:50:51.424Z,-0.18
2022-12-08T22:55:54.619Z,-0.16
2022-12-08T23:00:57.388Z,-0.17
2022-12-08T23:06:00.661Z,-0.20
2022-12-08T23:11:03.768Z,-0.19
2022-12-08T23:16:08.920Z,-0.15
2022-12-08T23:21:15.273Z,-0.16
2022-12-08T23:26:24.820Z,-0.20
2022-12-08T23:31:28.132Z,-0.19
2022-12-08T23:36:31.994Z,-0.15
2022-12-08T23:41:35.269Z,-0.18
2022-12-08T23:46:38.498Z,-0.23
2022-12-08T23:51:41.556Z,-0.27
2022-12-08T23:56:44.487Z,-0.31
